KNMI Weerbulletins

Hier vind u de KMNI verwachtingen en de waarnemingen

Bron: KNMI website
Laatste update op 18-12-2018 om 19:18
ZCZC
FBNL50 EHDB 181430
WEERBULLETIN VOOR DE LUCHTVAART
.
GELDIG 181500/182100 UTC
.
SITUATIE: AAN DE ZUIDOOSTFLANK VAN EEN LAGEDRUKGEBIED TEN ZUIDEN VAN
IJSLAND VOERT EEN IN KRACHT TOENEMENDE ZUIDELIJKE STROMING DROGE
LUCHT AAN.
.
SIGNIFICANT WEER: LANGS DE KUST KANS OP MATIGE TURBULENTIE.
.
WIND: ZUID TOT ZUIDOOST 7-12 KN, IN DE KUSTGEBIEDEN EN BOVEN HET
IJSSELMEER 12-17 KN, AAN DE KUST 17-22 KN. IN DE EERST HELFT VAN DE
PERIODE KRIMPEND NAAR ZUIDOOST EN LANDINWAARTS TOENEMEND NAAR 9-14
KN, IN DE KUSTPROVINCIES NAAR 13-18 KN EN AAN DE KUST EN BOVEN HET
IJSSELMEER NAAR 19-24 KN. IN DE TWEEDE HELFT VAN DE PERIODE LANGS DE
KUST KANS OP WINDSTOTEN VAN 10 KN BOVEN DE GEMIDDELDE WIND.
.
BEWOLKING: IN HET WADDENGEBIED BKN ST/SC ROND 1000 VT, TOPPEN 2000
VT. SPOEDIG NOORDWAARTS WEGTREKKEND.
.
ZICHT: MEER DAN 10 KM.
.
NULGRADEN NIVEAU: ROND FL060-070.
.
HOOGTEWINDEN EN TEMPERATUREN:
       15 UTC:       21 UTC:
0500VT 160/20-25 +06 150/25-30 +03
1500VT 180/25-35 +05 180/35-45 +06
3000VT 190/30-40 +06 180/30-45 +07
FL 050 190/25-35 +02 190/30-50 +03
FL 100 200/15-35 -04 190/25-45 -05
HOOGSTE WINDSNELHEDEN IN HET WESTEN, LAAGSTE IN HET OOSTEN.
.
VOORUITZICHTEN VOOR MORGEN: AAN DE ZUIDOOSTFLANK VAN EEN LAAG TEN
NOORDWESTEN VAN SCHOTLAND VOERT EEN ZUIDELIJKE STROMING POLAIRE LUCHT
AAN. EEN NNW-ZZO GEORIENTEERD KOUFRONT LIGT BOVEN HET NOORDOOSTEN EN
VERLAAT HALVERWEGE HET OOSTEN VAN HET LAND. BIJ HET KOUFRONT LICHTE
TOT MATIGE REGEN EN MATIGE IJSAANZETTING BOVEN FL050. ACHTER HET
KOUFRONT TOT IN HET BEGIN VAN DE MIDDAG KANS OP NEVEL EN ST. LANGS DE
KUST KANS OP MATIGE TURBULENTIE. IN DE TWEEDE HELFT VAN DE MIDDAG IN
HET WESTEN KANS OP EEN LICHTE REGENBUI.
.
DAGLICHTPERIODE: 07.29 TOT 15.44 UTC.=
NNNN
Bron: KNMI website
Laatste update op 18-12-2018 om 19:18
ZCZC
FC181700 EHKD RRB DE KOOY/DE KOOY   NLD   1 m.
TAF EHKD 181707Z 1818/1906 14015G25KT CAVOK
    BECMG 1900/1903 18012KT SCT020 BKN030
    TEMPO 1901/1906 SCT008 BKN012=
ZCZC
FC181700 EHLW RRA LEEUWARDEN/LEEUWARDEN   NLD   1 m.
TAF EHLW 181703Z 1818/1906 14012G22KT CAVOK
    BECMG 1901/1903 18010KT SCT020 BKN030
    TEMPO 1903/1906 SCT008 BKN012=
ZCZC
FC181700 EHWO     WOENSDRECHT/WOENSDRECHT   NLD   19 m.
TAF EHWO 181700Z NIL=
ZCZC
FC181700 EHGR RRD GILZE-RIJEN/GILZE-RIJEN   NLD   14 m.
TAF EHGR 181730Z 1818/1906 14012KT CAVOK
    PROB30 TEMPO 1818/1900 14012G22KT
    BECMG 1900/1902 19010KT SCT020 BKN030
    TEMPO 1901/1906 SCT008 BKN012=
ZCZC
FC181700 EHVK RRC VOLKEL/VOLKEL   NLD   21 m.
TAF EHVK 181726Z 1818/1906 13011KT CAVOK
    BECMG 1901/1904 21011KT SCT014 BKN020
    TEMPO 1902/1906 SCT008 BKN012=
ZCZC
FT181700 EHAM     AMSTERDAM/SCHIPHOL   NLD   -3 m.
TAF EHAM 181709Z 1818/1924 14016KT CAVOK
    BECMG 1900/1903 18010KT 6000 RA BKN017
    BECMG 1903/1905 9999 NSW BKN012
    PROB40 1904/1912 7000 BKN005
    BECMG 1915/1918 SCT018
    PROB30 TEMPO 1916/1924 7000 -SHRA BKN012 SCT015CB=
ZCZC
FT181700 EHBK     MAASTRICHT/MAASTRICHT-AACHEN   NLD   114 m.
TAF EHBK 181707Z 1818/1924 13006KT CAVOK
    BECMG 1819/1822 17012KT
    BECMG 1903/1906 21012KT
    PROB30 TEMPO 1904/1908 7000 -RA BKN012
    PROB30 TEMPO 1918/1922 4000 SHRA SCT018CB=
ZCZC
FT181700 EHGG     GRONINGEN/EELDE   NLD   5 m.
TAF EHGG 181708Z 1818/1924 15014KT CAVOK
    BECMG 1901/1904 18012KT
    PROB40 TEMPO 1904/1907 7000 -RA
    PROB40 1907/1915 6000 BKN006
    PROB30 TEMPO 1919/1922 7000 -SHRA BKN012 FEW020TCU=
ZCZC
FT181700 EHRD     ROTTERDAM/THE HAGUE AIRPORT   NLD   -5 m.
TAF EHRD 181709Z 1818/1924 14016KT CAVOK
    BECMG 1900/1903 18010KT 6000 RA BKN017
    BECMG 1903/1905 9999 NSW BKN012
    PROB40 1904/1912 7000 BKN005
    BECMG 1915/1918 SCT018
    PROB30 TEMPO 1916/1924 7000 -SHRA BKN012 SCT015CB=
ZCZC
FT181700 EHEH     EINDHOVEN/EINDHOVEN   NLD   22 m.
TAF EHEH 181741Z 1818/1924 14010KT CAVOK
    TEMPO 1818/1824 14010G20KT
    BECMG 1900/1903 21010KT SCT020 BKN030
    TEMPO 1903/1906 SCT010 BKN014
    PROB30 TEMPO 1906/1912 SCT008 BKN012
    PROB40 TEMPO 1915/1924 SCT018CB BKN020=
Bron: KNMI website
Laatste update op 18-12-2018 om 19:18
ZCZC
SA181755 EHKD     DE KOOY/DE KOOY   NLD   1 m.
METAR EHKD 181755Z AUTO 14016KT 100V170 9999 OVC100 06/04 Q1012
BLU 14015KT CAVOK=
ZCZC
SA181755 EHFD     F3-FB-1   NLD   50 m.
METAR EHFD 181755Z AUTO 16033KT 9999 FEW008/// BKN010/// OVC012///
08/06 Q1010 W///H///=
ZCZC
SA181755 EHAM     AMSTERDAM/SCHIPHOL   NLD   -3 m.
METAR EHAM 181755Z 13016KT CAVOK 07/04 Q1012 NOSIG=
ZCZC
SA181755 EHVL     VLIELAND   NLD   10 m.
METAR EHVL 181755Z AUTO 14024KT 9999 OVC100 05/04 Q1012 BLU=
ZCZC
SA181755 EHJR     K13-A   NLD   37 m.
METAR EHJR 181755Z AUTO 16035KT //// // ///////// 10/06 Q1008 RE//
W///H27=
ZCZC
SA181755 EHLW     LEEUWARDEN/LEEUWARDEN   NLD   1 m.
METAR EHLW 181755Z AUTO 15013KT 110V180 9999 OVC150 06/04 Q1014 BLU=
ZCZC
SA181755 EHDL     ARNHEM/DEELEN   NLD   48 m.
METAR EHDL 181755Z AUTO 14014KT 070V210 9999 OVC140 05/03 Q1014 BLU=
ZCZC
SA181755 EHGG     GRONINGEN/EELDE   NLD   5 m.
METAR EHGG 181755Z AUTO 14008KT 100V180 9999 NSC 05/03 Q1015 NOSIG=
ZCZC
SA181755 EHSC     LICHTEILAND GOEREE   NLD   22 m.
METAR EHSC 181755Z AUTO 15026KT 9999 ///////// 08/04 Q1010 W08/H10=
ZCZC
SA181755 EHSA     EURO PLATFORM   NLD   19 m.
METAR EHSA 181755Z AUTO 13028KT 9999 ///////// 08/04 Q1008 W07/H17=
ZCZC
SA181755 EHWO     WOENSDRECHT/WOENSDRECHT   NLD   19 m.
METAR EHWO 181755Z AUTO 14008KT 090V190 9999 OVC100 07/02 Q1012 BLU=
ZCZC
SA181755 EHRD     ROTTERDAM/THE HAGUE AIRPORT   NLD   -5 m.
METAR EHRD 181755Z AUTO 14017G27KT 110V180 9999 NSC 08/03 Q1012
NOSIG=
ZCZC
SA181755 EHGR     GILZE-RIJEN/GILZE-RIJEN   NLD   14 m.
METAR EHGR 181755Z AUTO 13010KT 9999 OVC130 07/03 Q1013
BLU 13012KT CAVOK=
ZCZC
SA181755 EHEH     EINDHOVEN/EINDHOVEN   NLD   22 m.
METAR EHEH 181755Z AUTO 14010KT 110V180 9999 OVC140 06/03 Q1014
BLU 13012KT CAVOK=
ZCZC
SA181755 EHVK     VOLKEL/VOLKEL   NLD   21 m.
METAR EHVK 181755Z AUTO 13010KT 110V170 9999 OVC130 05/03 Q1014 BLU=
ZCZC
SA181755 EHBK     MAASTRICHT/MAASTRICHT-AACHEN   NLD   114 m.
METAR EHBK 181755Z AUTO 13007KT 9999 NSC 04/00 Q1014 NOSIG=
ZCZC
SA181755 EHFZ     F16-A   NLD   43 m.
METAR EHFZ 181755Z AUTO 16033KT //// // FEW009 SCT011 BKN014 08/06
Q1009 W///H///=
ZCZC
SA181755 EHKV     K14-FA-1C   NLD   41 m.
METAR EHKV 181755Z AUTO 15030KT 9999 FEW012 09/06 Q1009 W///H///=
ZCZC
SA181755 EHMG     L9-FF-1   NLD   44 m.
METAR EHMG 181755Z AUTO 16032KT 9999 NSC 07/05 Q1012 W///H///=
ZCZC
SA181755 EHMA     AWG-1   NLD   40 m.
METAR EHMA 181755Z AUTO 13025KT 9999 NSC 05/03 Q1014 W///H///=
ZCZC
SA181755 EHDV     D15-FA-1   NLD   42 m.
METAR EHDV 181755Z AUTO 15035KT 9999 SCT010/// BKN013/// BKN015///
09/06 Q1007 W///H///=
ZCZC
SA181755 EHAK     A12-CPP   NLD   48 m.
METAR EHAK 181755Z AUTO 15033KT 9999 SCT011/// BKN013/// BKN016///
09/06 Q1008 W///H///=
ZCZC
SA181755 EHQE     HOORN-A   NLD   50 m.
METAR EHQE 181755Z AUTO 15032KT 9999 NSC 08/05 Q1010 W///H///=
ZCZC
SA181755 EHJA     J6-A   NLD   45 m.
METAR EHJA 181755Z AUTO 15033KT 9999 FEW017/// 09/06 Q1008 W///H///=
ZCZC
SA181755 EHPG     P11-B   NLD   41 m.
METAR EHPG 181755Z AUTO 12033KT 080V150 9999 NSC 09/05 Q1008
W///H///=
ZCZC
SA181755 EHHW     BUITENGAATS/BG-OHVS2      42 m.
METAR EHHW 181755Z AUTO 17026KT //// // FEW009/// 07/04 Q1014 RE//
W///H///=
ZCZC
SA181755 EHFS     VLISSINGEN AWS   NLD   8 m.
METAR EHFS 181755Z AUTO 16023KT 9999 NSC 08/03 Q1010 W///H///=